Time;durP1;ratioP1;P1;durP2;ratioP2;P2;SDS_P1;SDS_P2;PMS_P1;PMS_P2;Temp;Humidity;BMP_temperature;BMP_pressure;BME280_temperature;BME280_humidity;BME280_pressure;Samples;Min_cycle;Max_cycle;Signal;HPM_P1;HPM_P2
2022/05/19 00:01:35;;;;;;;0.10;0.10;;;;;;;;;;5145375;27;20237;-75
2022/05/19 00:04:01;;;;;;;0.00;0.00;;;;;;;;;;5148848;27;20213;-74
2022/05/19 00:06:27;;;;;;;0.05;0.05;;;;;;;;;;5144591;27;20314;-73
2022/05/19 00:08:56;;;;;;;0.10;0.10;;;;;;;;;;5149691;27;20208;-72
2022/05/19 00:11:27;;;;;;;0.00;0.00;;;;;;;;;;5144241;27;20252;-73
2022/05/19 00:13:54;;;;;;;0.00;0.00;;;;;;;;;;5150095;27;20485;-73
2022/05/19 00:16:20;;;;;;;0.00;0.00;;;;;;;;;;5143668;27;20259;-73
2022/05/19 00:18:46;;;;;;;0.10;0.10;;;;;;;;;;5150583;27;20244;-73
2022/05/19 00:21:12;;;;;;;0.00;0.00;;;;;;;;;;5141816;27;20241;-73
2022/05/19 00:23:39;;;;;;;0.00;0.00;;;;;;;;;;5151311;27;20201;-72
2022/05/19 00:26:05;;;;;;;0.00;0.00;;;;;;;;;;5141469;27;20252;-73
2022/05/19 00:28:32;;;;;;;0.10;0.10;;;;;;;;;;5152607;27;20243;-72
2022/05/19 00:31:00;;;;;;;0.10;0.10;;;;;;;;;;5140575;27;20296;-72
2022/05/19 00:33:26;;;;;;;0.00;0.00;;;;;;;;;;5152929;27;20191;-72
2022/05/19 00:35:52;;;;;;;0.00;0.00;;;;;;;;;;5139892;27;20263;-73
2022/05/19 00:38:18;;;;;;;0.00;0.00;;;;;;;;;;5153909;27;20274;-72
2022/05/19 00:40:46;;;;;;;0.00;0.00;;;;;;;;;;5138557;27;20321;-72
2022/05/19 00:43:13;;;;;;;0.00;0.00;;;;;;;;;;5154526;27;20189;-73
2022/05/19 00:45:43;;;;;;;0.10;0.10;;;;;;;;;;5137730;27;20266;-72
2022/05/19 00:48:14;;;;;;;0.00;0.00;;;;;;;;;;5155154;27;20248;-73
2022/05/19 00:50:43;;;;;;;0.00;0.00;;;;;;;;;;5138086;27;20245;-72
2022/05/19 00:53:10;;;;;;;0.00;0.00;;;;;;;;;;5154973;27;20205;-72
2022/05/19 00:55:39;;;;;;;0.00;0.00;;;;;;;;;;5137530;27;20234;-72
2022/05/19 00:58:08;;;;;;;0.00;0.00;;;;;;;;;;5155479;27;20223;-72
2022/05/19 01:00:34;;;;;;;0.10;0.10;;;;;;;;;;5137051;27;20270;-72
2022/05/19 01:03:02;;;;;;;0.10;0.10;;;;;;;;;;5155829;27;20524;-71
2022/05/19 01:05:32;;;;;;;0.00;0.00;;;;;;;;;;5136364;27;20286;-73
2022/05/19 01:08:02;;;;;;;0.10;0.10;;;;;;;;;;5156140;27;20189;-72
2022/05/19 01:10:29;;;;;;;0.10;0.10;;;;;;;;;;5136406;27;20265;-72
2022/05/19 01:12:55;;;;;;;0.00;0.00;;;;;;;;;;5156357;27;20312;-73
2022/05/19 01:15:22;;;;;;;0.00;0.00;;;;;;;;;;5135132;27;20461;-75
2022/05/19 01:17:49;;;;;;;0.08;0.08;;;;;;;;;;5160936;27;20245;-73
2022/05/19 01:20:19;;;;;;;0.10;0.10;;;;;;;;;;5138578;27;20213;-72
2022/05/19 01:22:50;;;;;;;0.10;0.10;;;;;;;;;;5162318;27;20209;-72
2022/05/19 01:25:22;;;;;;;0.00;0.00;;;;;;;;;;5138426;27;20216;-73
2022/05/19 01:27:50;;;;;;;0.05;0.05;;;;;;;;;;5161202;27;20192;-73
2022/05/19 01:30:17;;;;;;;0.00;0.00;;;;;;;;;;5138424;27;20202;-72
2022/05/19 01:32:43;;;;;;;0.00;0.00;;;;;;;;;;5162159;27;20197;-73
2022/05/19 01:35:09;;;;;;;0.03;0.03;;;;;;;;;;5136936;27;20201;-72
2022/05/19 01:37:36;;;;;;;0.10;0.10;;;;;;;;;;5162676;27;20290;-72
2022/05/19 01:40:04;;;;;;;0.10;0.10;;;;;;;;;;5147479;27;20193;-73
2022/05/19 01:42:36;;;;;;;0.00;0.00;;;;;;;;;;5118729;27;20262;-72
2022/05/19 01:45:09;;;;;;;0.00;0.00;;;;;;;;;;5147278;27;20561;-72
2022/05/19 01:47:38;;;;;;;0.00;0.00;;;;;;;;;;5118738;27;20212;-73
2022/05/19 01:50:08;;;;;;;0.10;0.10;;;;;;;;;;5142114;27;20198;-73
2022/05/19 01:52:38;;;;;;;0.10;0.10;;;;;;;;;;5129253;27;20226;-72
2022/05/19 01:55:08;;;;;;;0.10;0.10;;;;;;;;;;5140568;27;20186;-74
2022/05/19 01:57:37;;;;;;;0.10;0.10;;;;;;;;;;5129471;27;20268;-73
2022/05/19 02:00:08;;;;;;;0.00;0.00;;;;;;;;;;5147330;27;20322;-72
2022/05/19 02:02:39;;;;;;;0.00;0.00;;;;;;;;;;5118065;27;20205;-72
2022/05/19 02:05:11;;;;;;;0.07;0.07;;;;;;;;;;5136595;27;20511;-73
2022/05/19 02:07:38;;;;;;;0.00;0.00;;;;;;;;;;5129893;27;20449;-72
2022/05/19 02:10:06;;;;;;;0.00;0.00;;;;;;;;;;5146765;27;20506;-73
2022/05/19 02:12:34;;;;;;;0.10;0.10;;;;;;;;;;5117816;27;20281;-73
2022/05/19 02:15:03;;;;;;;0.00;0.00;;;;;;;;;;5146628;27;20254;-73
2022/05/19 02:17:33;;;;;;;0.03;0.03;;;;;;;;;;5117689;27;20224;-72
2022/05/19 02:20:03;;;;;;;0.03;0.03;;;;;;;;;;5147214;27;20258;-72
2022/05/19 02:22:33;;;;;;;0.10;0.10;;;;;;;;;;5117933;27;20201;-73
2022/05/19 02:25:03;;;;;;;0.00;0.00;;;;;;;;;;5146811;27;20204;-71
2022/05/19 02:27:33;;;;;;;0.00;0.00;;;;;;;;;;5117089;27;20241;-72
2022/05/19 02:30:01;;;;;;;0.00;0.00;;;;;;;;;;5146340;27;20203;-71
2022/05/19 02:32:27;;;;;;;0.10;0.10;;;;;;;;;;5117503;27;20629;-72
2022/05/19 02:34:55;;;;;;;0.10;0.10;;;;;;;;;;5146574;27;20254;-73
2022/05/19 02:37:21;;;;;;;0.00;0.00;;;;;;;;;;5117486;27;20561;-72
2022/05/19 02:39:47;;;;;;;0.10;0.10;;;;;;;;;;5146114;27;20209;-73
2022/05/19 02:42:13;;;;;;;0.10;0.10;;;;;;;;;;5117274;27;20471;-73
2022/05/19 02:44:40;;;;;;;0.10;0.10;;;;;;;;;;5146779;27;20241;-72
2022/05/19 02:47:07;;;;;;;0.10;0.10;;;;;;;;;;5117134;27;20302;-72
2022/05/19 02:49:33;;;;;;;0.10;0.10;;;;;;;;;;5146635;27;20487;-73
2022/05/19 02:52:01;;;;;;;0.00;0.00;;;;;;;;;;5117949;27;20241;-72
2022/05/19 02:54:27;;;;;;;0.10;0.10;;;;;;;;;;5145716;27;20216;-72
2022/05/19 02:56:53;;;;;;;0.10;0.10;;;;;;;;;;5118740;27;20417;-73
2022/05/19 02:59:21;;;;;;;0.10;0.10;;;;;;;;;;5144495;27;20485;-72
2022/05/19 03:01:48;;;;;;;0.10;0.10;;;;;;;;;;5119417;27;20257;-73
2022/05/19 03:04:14;;;;;;;0.13;0.13;;;;;;;;;;5143727;27;20204;-73
2022/05/19 03:06:40;;;;;;;0.08;0.08;;;;;;;;;;5120565;27;20245;-73
2022/05/19 03:09:08;;;;;;;0.00;0.00;;;;;;;;;;5142516;27;20224;-74
2022/05/19 03:11:35;;;;;;;0.00;0.00;;;;;;;;;;5121374;27;20313;-73
2022/05/19 03:14:02;;;;;;;0.00;0.00;;;;;;;;;;5141563;27;20202;-73
2022/05/19 03:16:28;;;;;;;0.03;0.03;;;;;;;;;;5122499;27;20268;-72
2022/05/19 03:18:54;;;;;;;0.00;0.00;;;;;;;;;;5139858;27;20258;-72
2022/05/19 03:21:20;;;;;;;0.03;0.03;;;;;;;;;;5123390;27;20283;-72
2022/05/19 03:23:47;;;;;;;0.05;0.05;;;;;;;;;;5138088;27;20204;-73
2022/05/19 03:26:14;;;;;;;0.00;0.00;;;;;;;;;;5123620;27;20265;-73
2022/05/19 03:28:41;;;;;;;0.10;0.10;;;;;;;;;;5137883;27;20253;-73
2022/05/19 03:31:09;;;;;;;0.10;0.10;;;;;;;;;;5125350;27;20560;-72
2022/05/19 03:33:35;;;;;;;0.00;0.00;;;;;;;;;;5136937;27;20208;-72
2022/05/19 03:36:02;;;;;;;0.00;0.00;;;;;;;;;;5125888;27;20598;-73
2022/05/19 03:38:29;;;;;;;0.00;0.00;;;;;;;;;;5135745;27;20405;-72
2022/05/19 03:40:55;;;;;;;0.20;0.20;;;;;;;;;;5125948;27;20249;-72
2022/05/19 03:43:23;;;;;;;0.00;0.00;;;;;;;;;;5134525;27;20205;-72
2022/05/19 03:45:49;;;;;;;0.00;0.00;;;;;;;;;;5127821;27;20594;-72
2022/05/19 03:48:15;;;;;;;0.10;0.10;;;;;;;;;;5133543;27;20213;-72
2022/05/19 03:50:43;;;;;;;0.10;0.10;;;;;;;;;;5128558;27;20251;-73
2022/05/19 03:53:09;;;;;;;0.10;0.10;;;;;;;;;;5133032;27;20242;-73
2022/05/19 03:55:36;;;;;;;0.03;0.03;;;;;;;;;;5130089;27;20554;-73
2022/05/19 03:58:02;;;;;;;0.00;0.00;;;;;;;;;;5130625;27;20212;-73
2022/05/19 04:00:30;;;;;;;0.10;0.10;;;;;;;;;;5130971;27;20258;-71
2022/05/19 04:02:57;;;;;;;0.10;0.10;;;;;;;;;;5129514;27;20196;-73
2022/05/19 04:05:23;;;;;;;0.10;0.10;;;;;;;;;;5132554;27;20202;-74
2022/05/19 04:07:49;;;;;;;0.10;0.10;;;;;;;;;;5127696;27;20228;-73
2022/05/19 04:10:16;;;;;;;0.10;0.10;;;;;;;;;;5132683;27;20211;-73
2022/05/19 04:12:43;;;;;;;0.10;0.10;;;;;;;;;;5128118;27;20193;-73
2022/05/19 04:15:10;;;;;;;0.10;0.10;;;;;;;;;;5133189;27;20207;-73
2022/05/19 04:17:38;;;;;;;0.10;0.10;;;;;;;;;;5127069;27;20215;-73
2022/05/19 04:20:06;;;;;;;0.10;0.10;;;;;;;;;;5144438;27;20514;-72
2022/05/19 04:22:33;;;;;;;0.03;0.03;;;;;;;;;;5115448;27;20409;-73
2022/05/19 04:25:00;;;;;;;0.10;0.10;;;;;;;;;;5144625;27;20387;-73
2022/05/19 04:27:27;;;;;;;0.00;0.00;;;;;;;;;;5115533;27;20247;-72
2022/05/19 04:29:54;;;;;;;0.08;0.08;;;;;;;;;;5144448;27;20261;-72
2022/05/19 04:32:20;;;;;;;0.07;0.07;;;;;;;;;;5115378;27;20241;-73
2022/05/19 04:34:48;;;;;;;0.03;0.03;;;;;;;;;;5144430;27;20225;-73
2022/05/19 04:37:14;;;;;;;0.10;0.10;;;;;;;;;;5115118;27;20569;-73
2022/05/19 04:39:41;;;;;;;0.10;0.10;;;;;;;;;;5144023;27;20245;-72
2022/05/19 04:42:08;;;;;;;0.00;0.00;;;;;;;;;;5114978;28;20243;-72
2022/05/19 04:44:35;;;;;;;0.10;0.10;;;;;;;;;;5144048;27;20208;-73
2022/05/19 04:47:01;;;;;;;0.00;0.00;;;;;;;;;;5115334;28;20243;-73
2022/05/19 04:49:27;;;;;;;0.10;0.10;;;;;;;;;;5142877;28;20221;-72
2022/05/19 04:51:56;;;;;;;0.00;0.00;;;;;;;;;;5116596;28;20243;-72
2022/05/19 04:54:25;;;;;;;0.10;0.10;;;;;;;;;;5142469;28;20531;-74
2022/05/19 04:56:51;;;;;;;0.00;0.00;;;;;;;;;;5117176;28;20483;-72
2022/05/19 04:59:18;;;;;;;0.10;0.10;;;;;;;;;;5142073;28;20538;-73
2022/05/19 05:01:45;;;;;;;0.10;0.10;;;;;;;;;;5118518;28;20455;-72
2022/05/19 05:04:12;;;;;;;0.03;0.03;;;;;;;;;;5140420;28;20215;-72
2022/05/19 05:06:38;;;;;;;0.07;0.07;;;;;;;;;;5119281;28;20552;-72
2022/05/19 05:09:06;;;;;;;0.00;0.00;;;;;;;;;;5139737;28;20557;-72
2022/05/19 05:11:32;;;;;;;0.00;0.00;;;;;;;;;;5120195;28;20248;-72
2022/05/19 05:13:59;;;;;;;0.00;0.00;;;;;;;;;;5138724;28;20204;-72
2022/05/19 05:16:25;;;;;;;0.10;0.10;;;;;;;;;;5121310;28;20243;-72
2022/05/19 05:18:51;;;;;;;0.10;0.10;;;;;;;;;;5137538;28;20612;-73
2022/05/19 05:21:18;;;;;;;0.10;0.10;;;;;;;;;;5122381;28;20237;-73
2022/05/19 05:23:44;;;;;;;0.00;0.00;;;;;;;;;;5136714;28;20328;-73
2022/05/19 05:26:12;;;;;;;0.00;0.00;;;;;;;;;;5123147;27;20573;-73
2022/05/19 05:28:39;;;;;;;0.10;0.10;;;;;;;;;;5135479;28;20204;-73
2022/05/19 05:31:05;;;;;;;0.10;0.10;;;;;;;;;;5123795;28;20566;-72
2022/05/19 05:33:31;;;;;;;0.00;0.00;;;;;;;;;;5135110;28;20506;-73
2022/05/19 05:35:58;;;;;;;0.00;0.00;;;;;;;;;;5124999;28;20267;-73
2022/05/19 05:38:24;;;;;;;0.00;0.00;;;;;;;;;;5133282;28;20224;-71
2022/05/19 05:40:51;;;;;;;0.00;0.00;;;;;;;;;;5126407;28;20240;-72
2022/05/19 05:43:19;;;;;;;0.10;0.10;;;;;;;;;;5132666;28;20538;-71
2022/05/19 05:45:46;;;;;;;0.03;0.03;;;;;;;;;;5126949;28;20256;-71
2022/05/19 05:48:12;;;;;;;0.10;0.10;;;;;;;;;;5131783;28;20207;-73
2022/05/19 05:50:39;;;;;;;0.00;0.00;;;;;;;;;;5128098;28;20322;-71
2022/05/19 05:53:05;;;;;;;0.10;0.10;;;;;;;;;;5130023;28;20226;-71
2022/05/19 05:55:32;;;;;;;0.10;0.10;;;;;;;;;;5128872;28;20495;-74
2022/05/19 05:57:58;;;;;;;0.13;0.13;;;;;;;;;;5129055;28;20244;-63
2022/05/19 06:00:26;;;;;;;0.10;0.10;;;;;;;;;;5130484;28;20512;-61
2022/05/19 06:02:52;;;;;;;0.00;0.00;;;;;;;;;;5128369;27;20211;-60
2022/05/19 06:05:19;;;;;;;0.00;0.00;;;;;;;;;;5134400;27;20212;-60
2022/05/19 06:07:45;;;;;;;0.00;0.00;;;;;;;;;;5131381;27;20192;-73
2022/05/19 06:10:12;;;;;;;0.00;0.00;;;;;;;;;;5135650;27;20241;-74
2022/05/19 06:12:39;;;;;;;0.00;0.00;;;;;;;;;;5130448;27;20507;-71
2022/05/19 06:15:06;;;;;;;0.00;0.00;;;;;;;;;;5136196;27;20451;-65
2022/05/19 06:17:34;;;;;;;0.03;0.03;;;;;;;;;;5129432;27;20242;-64
2022/05/19 06:20:00;;;;;;;0.00;0.00;;;;;;;;;;5146857;27;20245;-65
2022/05/19 06:22:27;;;;;;;0.10;0.10;;;;;;;;;;5118030;27;20240;-65
2022/05/19 06:24:53;;;;;;;0.00;0.00;;;;;;;;;;5146808;27;20206;-66
2022/05/19 06:27:19;;;;;;;0.10;0.10;;;;;;;;;;5117879;27;20614;-66
2022/05/19 06:29:45;;;;;;;0.00;0.00;;;;;;;;;;5146767;27;20553;-65
2022/05/19 06:32:12;;;;;;;0.08;0.08;;;;;;;;;;5117875;27;20283;-65
2022/05/19 06:34:39;;;;;;;0.00;0.00;;;;;;;;;;5146703;27;20206;-65
2022/05/19 06:37:05;;;;;;;0.00;0.00;;;;;;;;;;5117651;27;20280;-65
2022/05/19 06:39:32;;;;;;;0.08;0.08;;;;;;;;;;5146219;27;20269;-65
2022/05/19 06:42:04;;;;;;;0.00;0.00;;;;;;;;;;5118760;27;20552;-66
2022/05/19 06:44:31;;;;;;;0.20;0.20;;;;;;;;;;5146522;27;20195;-66
2022/05/19 06:46:58;;;;;;;0.00;0.00;;;;;;;;;;5118630;27;20291;-65
2022/05/19 06:49:24;;;;;;;0.03;0.03;;;;;;;;;;5145638;27;20366;-64
2022/05/19 06:51:51;;;;;;;0.00;0.00;;;;;;;;;;5119797;27;20238;-66
2022/05/19 06:54:18;;;;;;;0.10;0.10;;;;;;;;;;5144487;27;20251;-66
2022/05/19 06:56:44;;;;;;;4.78;4.47;;;;;;;;;;5120597;27;20245;-65
2022/05/19 06:59:11;;;;;;;0.10;0.10;;;;;;;;;;5143219;27;20227;-66
2022/05/19 07:01:37;;;;;;;0.00;0.00;;;;;;;;;;5121608;27;20485;-65
2022/05/19 07:04:04;;;;;;;0.00;0.00;;;;;;;;;;5142263;27;20208;-65
2022/05/19 07:06:30;;;;;;;0.00;0.00;;;;;;;;;;5122544;27;20471;-67
2022/05/19 07:08:58;;;;;;;0.10;0.10;;;;;;;;;;5140936;27;20441;-67
2022/05/19 07:11:27;;;;;;;0.00;0.00;;;;;;;;;;5123338;27;20243;-64
2022/05/19 07:13:55;;;;;;;0.00;0.00;;;;;;;;;;5140460;27;20209;-65
2022/05/19 07:16:21;;;;;;;0.00;0.00;;;;;;;;;;5123776;27;20396;-66
2022/05/19 07:18:50;;;;;;;0.10;0.10;;;;;;;;;;5139543;27;20268;-66
2022/05/19 07:21:18;;;;;;;0.00;0.00;;;;;;;;;;5124294;27;20566;-65
2022/05/19 07:23:46;;;;;;;0.10;0.10;;;;;;;;;;5139156;27;20266;-65
2022/05/19 07:26:14;;;;;;;0.05;0.05;;;;;;;;;;5125176;27;20286;-65
2022/05/19 07:28:40;;;;;;;0.00;0.00;;;;;;;;;;5137602;27;20203;-66
2022/05/19 07:31:06;;;;;;;0.10;0.10;;;;;;;;;;5125732;27;20240;-65
2022/05/19 07:33:34;;;;;;;0.10;0.10;;;;;;;;;;5137027;27;20375;-65
2022/05/19 07:36:01;;;;;;;0.08;0.08;;;;;;;;;;5126435;27;20637;-65
2022/05/19 07:38:27;;;;;;;0.10;0.10;;;;;;;;;;5135756;27;20542;-66
2022/05/19 07:40:54;;;;;;;0.10;0.10;;;;;;;;;;5127471;27;20271;-65
2022/05/19 07:43:37;;;;;;;0.10;0.10;;;;;;;;;;5134912;27;20235;-65
2022/05/19 07:46:03;;;;;;;0.10;0.10;;;;;;;;;;5125810;27;20247;-65
2022/05/19 07:48:30;;;;;;;0.20;0.20;;;;;;;;;;5135957;27;20201;-66
2022/05/19 07:50:56;;;;;;;0.10;0.10;;;;;;;;;;5126829;27;20237;-66
2022/05/19 07:53:22;;;;;;;0.00;0.00;;;;;;;;;;5134978;27;20203;-65
2022/05/19 07:55:49;;;;;;;0.00;0.00;;;;;;;;;;5127969;27;20242;-66
2022/05/19 07:58:15;;;;;;;0.00;0.00;;;;;;;;;;5133717;27;20560;-66
2022/05/19 08:00:42;;;;;;;0.20;0.20;;;;;;;;;;5128786;27;20306;-65
2022/05/19 08:03:11;;;;;;;0.00;0.00;;;;;;;;;;5132595;27;20252;-65
2022/05/19 08:05:37;;;;;;;0.00;0.00;;;;;;;;;;5129462;27;20329;-66
2022/05/19 08:08:04;;;;;;;0.00;0.00;;;;;;;;;;5131644;27;20239;-65
2022/05/19 08:10:31;;;;;;;1.35;1.33;;;;;;;;;;5130162;27;20248;-65
2022/05/19 08:15:45;;;;;;;0.00;0.00;;;;;;;;;;5128878;27;20277;-67
2022/05/19 08:18:12;;;;;;;0.00;0.00;;;;;;;;;;5132224;27;20279;-66
2022/05/19 08:20:40;;;;;;;0.00;0.00;;;;;;;;;;5129133;27;20303;-66
2022/05/19 08:23:06;;;;;;;1.23;1.23;;;;;;;;;;5131979;27;20231;-65
2022/05/19 08:25:33;;;;;;;0.43;0.43;;;;;;;;;;5129264;27;20582;-64
2022/05/19 08:27:59;;;;;;;0.85;0.85;;;;;;;;;;5130868;27;20451;-65
2022/05/19 08:30:26;;;;;;;0.10;0.10;;;;;;;;;;5130886;27;20246;-65
2022/05/19 08:32:55;;;;;;;0.55;0.55;;;;;;;;;;5129934;27;20208;-65
2022/05/19 08:35:21;;;;;;;0.00;0.00;;;;;;;;;;5131273;27;20212;-65
2022/05/19 08:37:48;;;;;;;0.00;0.00;;;;;;;;;;5128570;27;20212;-67
2022/05/19 08:40:14;;;;;;;0.00;0.00;;;;;;;;;;5132320;27;20553;-66
2022/05/19 08:42:44;;;;;;;0.00;0.00;;;;;;;;;;5127635;27;20227;-66
2022/05/19 08:45:14;;;;;;;0.03;0.03;;;;;;;;;;5133074;27;20558;-66
2022/05/19 08:47:40;;;;;;;0.10;0.10;;;;;;;;;;5127416;28;20204;-67
2022/05/19 08:50:18;;;;;;;0.08;0.08;;;;;;;;;;5133400;28;20205;-67
2022/05/19 08:52:49;;;;;;;0.00;0.00;;;;;;;;;;5127970;28;20230;-66
2022/05/19 08:55:16;;;;;;;0.17;0.17;;;;;;;;;;5131864;28;20201;-65
2022/05/19 08:57:46;;;;;;;0.00;0.00;;;;;;;;;;5127662;28;20190;-66
2022/05/19 09:00:15;;;;;;;0.00;0.00;;;;;;;;;;5132519;28;20300;-66
2022/05/19 09:02:44;;;;;;;0.00;0.00;;;;;;;;;;5127694;28;20243;-65
2022/05/19 09:05:22;;;;;;;0.52;0.40;;;;;;;;;;5132796;28;20254;-66
2022/05/19 09:07:59;;;;;;;0.00;0.00;;;;;;;;;;5128634;28;20461;-66
2022/05/19 09:10:46;;;;;;;0.00;0.00;;;;;;;;;;5130724;28;20302;-65
2022/05/19 09:13:17;;;;;;;0.00;0.00;;;;;;;;;;5132157;28;20188;-65
2022/05/19 09:15:45;;;;;;;0.10;0.10;;;;;;;;;;5127474;28;20257;-65
2022/05/19 09:18:13;;;;;;;0.00;0.00;;;;;;;;;;5132136;28;20232;-65
2022/05/19 09:20:42;;;;;;;1.27;1.20;;;;;;;;;;5128296;28;20279;-66
2022/05/19 09:23:08;;;;;;;0.00;0.00;;;;;;;;;;5131606;28;20201;-66
2022/05/19 09:25:35;;;;;;;0.00;0.00;;;;;;;;;;5128754;27;20241;-66
2022/05/19 09:28:02;;;;;;;0.00;0.00;;;;;;;;;;5130188;28;20512;-66
2022/05/19 09:30:35;;;;;;;0.30;0.20;;;;;;;;;;5130010;28;20246;-66
2022/05/19 09:33:06;;;;;;;0.00;0.00;;;;;;;;;;5130372;28;20203;-66
2022/05/19 09:35:37;;;;;;;0.00;0.00;;;;;;;;;;5129408;28;20423;-65
2022/05/19 09:38:12;;;;;;;0.00;0.00;;;;;;;;;;5131727;27;20232;-66
2022/05/19 09:40:40;;;;;;;0.00;0.00;;;;;;;;;;5131868;27;20296;-66
2022/05/19 09:43:10;;;;;;;0.00;0.00;;;;;;;;;;5135037;27;20201;-65
2022/05/19 09:45:37;;;;;;;0.00;0.00;;;;;;;;;;5132199;27;20580;-67
2022/05/19 09:48:05;;;;;;;0.10;0.10;;;;;;;;;;5134520;27;20207;-66
2022/05/19 09:50:36;;;;;;;0.00;0.00;;;;;;;;;;5132951;27;20260;-66
2022/05/19 09:53:04;;;;;;;0.00;0.00;;;;;;;;;;5133992;27;20231;-66
2022/05/19 09:55:33;;;;;;;0.00;0.00;;;;;;;;;;5133099;27;20253;-66
2022/05/19 09:58:02;;;;;;;0.00;0.00;;;;;;;;;;5133170;27;20211;-65
2022/05/19 10:00:32;;;;;;;0.00;0.00;;;;;;;;;;5132927;27;20305;-66
2022/05/19 10:03:00;;;;;;;0.00;0.00;;;;;;;;;;5133371;27;20221;-66
2022/05/19 10:05:33;;;;;;;0.00;0.00;;;;;;;;;;5133605;27;20475;-66
2022/05/19 10:08:04;;;;;;;0.00;0.00;;;;;;;;;;5133275;27;20208;-66
2022/05/19 10:10:33;;;;;;;0.00;0.00;;;;;;;;;;5132559;27;20242;-66
2022/05/19 10:13:02;;;;;;;5.57;0.45;;;;;;;;;;5133086;27;20201;-66
2022/05/19 10:15:35;;;;;;;0.00;0.00;;;;;;;;;;5133195;27;20237;-66
2022/05/19 10:18:07;;;;;;;0.00;0.00;;;;;;;;;;5133576;27;20189;-66
2022/05/19 10:20:36;;;;;;;0.00;0.00;;;;;;;;;;5132179;27;20237;-65
2022/05/19 10:23:13;;;;;;;0.00;0.00;;;;;;;;;;5133790;27;20201;-66
2022/05/19 10:25:49;;;;;;;0.00;0.00;;;;;;;;;;5131035;27;20244;-65
2022/05/19 10:31:08;;;;;;;0.00;0.00;;;;;;;;;;5127149;27;20236;-66
2022/05/19 10:33:39;;;;;;;0.00;0.00;;;;;;;;;;5138334;27;20254;-66
2022/05/19 10:36:11;;;;;;;0.00;0.00;;;;;;;;;;5126922;27;20238;-65
2022/05/19 10:38:42;;;;;;;0.00;0.00;;;;;;;;;;5138796;27;20423;-65
2022/05/19 10:41:14;;;;;;;0.00;0.00;;;;;;;;;;5126352;27;20237;-68
2022/05/19 10:44:02;;;;;;;0.00;0.00;;;;;;;;;;5139063;27;20534;-65
2022/05/19 10:46:31;;;;;;;0.20;0.20;;;;;;;;;;5080365;27;20237;-66
2022/05/19 10:49:02;;;;;;;0.00;0.00;;;;;;;;;;5140706;27;20201;-66
2022/05/19 10:51:34;;;;;;;0.00;0.00;;;;;;;;;;5123097;27;20439;-66
2022/05/19 10:54:10;;;;;;;1.65;0.73;;;;;;;;;;5142073;27;20197;-65
2022/05/19 10:56:43;;;;;;;0.00;0.00;;;;;;;;;;5122020;27;20238;-66
2022/05/19 10:59:18;;;;;;;0.00;0.00;;;;;;;;;;5142888;27;20296;-67
2022/05/19 11:01:49;;;;;;;0.00;0.00;;;;;;;;;;5120648;27;20237;-66
2022/05/19 11:04:27;;;;;;;0.00;0.00;;;;;;;;;;5144135;27;20197;-66
2022/05/19 11:07:04;;;;;;;0.00;0.00;;;;;;;;;;5118792;27;20241;-65
2022/05/19 11:09:34;;;;;;;0.85;0.47;;;;;;;;;;5146174;27;20256;-66
2022/05/19 11:12:07;;;;;;;0.10;0.10;;;;;;;;;;5117688;27;20563;-66
2022/05/19 11:14:47;;;;;;;0.00;0.00;;;;;;;;;;5146054;27;20277;-66
2022/05/19 11:17:16;;;;;;;0.00;0.00;;;;;;;;;;5117083;27;20249;-66
2022/05/19 11:19:47;;;;;;;0.00;0.00;;;;;;;;;;5145933;27;20225;-65
2022/05/19 11:22:15;;;;;;;0.00;0.00;;;;;;;;;;5116936;27;20244;-65
2022/05/19 11:27:30;;;;;;;0.00;0.00;;;;;;;;;;5116179;27;20237;-66
2022/05/19 11:29:58;;;;;;;0.00;0.00;;;;;;;;;;5145697;27;20458;-65
2022/05/19 11:32:26;;;;;;;0.00;0.00;;;;;;;;;;5116680;27;20264;-65
2022/05/19 11:34:54;;;;;;;0.00;0.00;;;;;;;;;;5145348;27;20242;-66
2022/05/19 11:37:26;;;;;;;0.00;0.00;;;;;;;;;;5116592;27;20238;-66
2022/05/19 11:39:57;;;;;;;0.10;0.10;;;;;;;;;;5145363;27;20229;-66
2022/05/19 11:42:28;;;;;;;0.00;0.00;;;;;;;;;;5116556;27;20242;-66
2022/05/19 11:44:56;;;;;;;0.00;0.00;;;;;;;;;;5145485;27;20497;-65
2022/05/19 11:55:42;;;;;;;0.00;0.00;;;;;;;;;;5129320;27;20257;-66
2022/05/19 11:58:19;;;;;;;0.05;0.05;;;;;;;;;;5132714;27;20196;-67
2022/05/19 12:00:55;;;;;;;0.00;0.00;;;;;;;;;;5127942;27;20245;-65
2022/05/19 12:03:23;;;;;;;0.05;0.05;;;;;;;;;;5134092;27;20237;-66
2022/05/19 12:05:53;;;;;;;0.00;0.00;;;;;;;;;;5127598;27;20244;-66
2022/05/19 12:08:21;;;;;;;0.00;0.00;;;;;;;;;;5134043;27;20280;-65
2022/05/19 12:10:48;;;;;;;0.00;0.00;;;;;;;;;;5127919;27;20241;-65
2022/05/19 12:13:16;;;;;;;0.00;0.00;;;;;;;;;;5133470;27;20422;-65
2022/05/19 12:15:52;;;;;;;0.00;0.00;;;;;;;;;;5128384;27;20241;-66
2022/05/19 12:18:33;;;;;;;0.00;0.00;;;;;;;;;;5133863;27;20501;-65
2022/05/19 12:21:23;;;;;;;0.00;0.00;;;;;;;;;;5125580;27;20242;-66
2022/05/19 12:23:50;;;;;;;0.00;0.00;;;;;;;;;;5138049;27;20186;-65
2022/05/19 12:26:19;;;;;;;0.00;0.00;;;;;;;;;;5123023;27;20444;-65
2022/05/19 12:28:50;;;;;;;0.25;0.10;;;;;;;;;;5137879;27;20393;-66
2022/05/19 12:34:05;;;;;;;0.00;0.00;;;;;;;;;;5140269;27;20205;-66
2022/05/19 12:36:37;;;;;;;0.00;0.00;;;;;;;;;;5120635;27;20245;-65
2022/05/19 12:39:09;;;;;;;0.00;0.00;;;;;;;;;;5140168;27;20533;-66
2022/05/19 12:41:37;;;;;;;0.00;0.00;;;;;;;;;;5119928;27;20467;-65
2022/05/19 12:44:18;;;;;;;0.00;0.00;;;;;;;;;;5140014;27;20204;-65
2022/05/19 12:46:47;;;;;;;0.20;0.20;;;;;;;;;;5117155;27;20245;-65
2022/05/19 12:49:18;;;;;;;0.00;0.00;;;;;;;;;;5141690;27;20302;-66
2022/05/19 12:51:55;;;;;;;0.00;0.00;;;;;;;;;;5118688;28;20242;-67
2022/05/19 12:54:21;;;;;;;0.00;0.00;;;;;;;;;;5143120;28;20197;-66
2022/05/19 12:57:11;;;;;;;0.00;0.00;;;;;;;;;;5117969;28;20258;-67
2022/05/19 12:59:52;;;;;;;0.00;0.00;;;;;;;;;;5118618;28;20230;-65
2022/05/19 13:02:33;;;;;;;0.00;0.00;;;;;;;;;;5115398;28;20237;-66
2022/05/19 13:05:02;;;;;;;0.38;0.20;;;;;;;;;;5143999;28;20212;-66
2022/05/19 13:07:33;;;;;;;0.00;0.00;;;;;;;;;;5115507;28;20251;-65
2022/05/19 13:10:02;;;;;;;0.00;0.00;;;;;;;;;;5143957;28;20236;-66
2022/05/19 13:12:30;;;;;;;0.00;0.00;;;;;;;;;;5117218;27;20286;-65
2022/05/19 13:14:58;;;;;;;0.00;0.00;;;;;;;;;;5148163;27;20251;-66
2022/05/19 13:17:31;;;;;;;0.00;0.00;;;;;;;;;;5119501;27;20291;-66
2022/05/19 13:19:57;;;;;;;0.15;0.13;;;;;;;;;;5148224;27;20216;-67
2022/05/19 13:22:26;;;;;;;0.00;0.00;;;;;;;;;;5119306;27;20237;-66
2022/05/19 13:24:53;;;;;;;0.00;0.00;;;;;;;;;;5148264;27;20202;-65
2022/05/19 13:30:21;;;;;;;0.00;0.00;;;;;;;;;;5136127;27;20219;-66
2022/05/19 13:32:48;;;;;;;0.00;0.00;;;;;;;;;;5132500;27;20492;-66
2022/05/19 13:35:16;;;;;;;0.00;0.00;;;;;;;;;;5135681;27;20218;-65
2022/05/19 13:37:43;;;;;;;0.00;0.00;;;;;;;;;;5131497;27;20189;-66
2022/05/19 13:40:11;;;;;;;0.10;0.10;;;;;;;;;;5136583;27;20225;-67
2022/05/19 13:42:38;;;;;;;0.00;0.00;;;;;;;;;;5130573;27;20190;-66
2022/05/19 13:45:05;;;;;;;0.00;0.00;;;;;;;;;;5147569;27;20276;-64
2022/05/19 13:47:32;;;;;;;0.00;0.00;;;;;;;;;;5118860;27;20262;-66
2022/05/19 13:50:02;;;;;;;0.00;0.00;;;;;;;;;;5147662;27;20492;-66
2022/05/19 13:52:29;;;;;;;0.00;0.00;;;;;;;;;;5118710;27;20245;-66
2022/05/19 13:54:56;;;;;;;0.00;0.00;;;;;;;;;;5147629;27;20223;-66
2022/05/19 13:57:24;;;;;;;0.52;0.52;;;;;;;;;;5118619;27;20573;-67
2022/05/19 13:59:51;;;;;;;0.08;0.08;;;;;;;;;;5147332;27;20194;-67
2022/05/19 14:02:21;;;;;;;0.05;0.05;;;;;;;;;;5118378;27;20242;-65
2022/05/19 14:04:47;;;;;;;0.00;0.00;;;;;;;;;;5147655;27;20391;-67
2022/05/19 14:07:16;;;;;;;0.00;0.00;;;;;;;;;;5118143;27;20238;-66
2022/05/19 14:09:51;;;;;;;0.00;0.00;;;;;;;;;;5146906;27;20205;-66
2022/05/19 14:12:24;;;;;;;0.00;0.00;;;;;;;;;;5118046;27;20245;-67
2022/05/19 14:14:52;;;;;;;0.00;0.00;;;;;;;;;;5147197;27;20209;-65
2022/05/19 14:17:19;;;;;;;0.00;0.00;;;;;;;;;;5118226;27;20288;-67
2022/05/19 14:19:46;;;;;;;0.00;0.00;;;;;;;;;;5147148;27;20425;-66
2022/05/19 14:22:13;;;;;;;0.00;0.00;;;;;;;;;;5118228;27;20276;-65
2022/05/19 14:24:42;;;;;;;0.00;0.00;;;;;;;;;;5145862;27;20220;-65
2022/05/19 14:27:08;;;;;;;0.00;0.00;;;;;;;;;;5117959;27;20238;-66
2022/05/19 14:29:36;;;;;;;0.00;0.00;;;;;;;;;;5147106;27;20246;-66
2022/05/19 14:32:18;;;;;;;0.10;0.10;;;;;;;;;;5118438;27;20244;-66
2022/05/19 14:34:44;;;;;;;0.17;0.17;;;;;;;;;;5146787;27;20266;-67
2022/05/19 14:37:13;;;;;;;0.10;0.10;;;;;;;;;;5117846;27;20337;-66
2022/05/19 14:39:45;;;;;;;0.00;0.00;;;;;;;;;;5146747;27;20225;-65
2022/05/19 14:44:58;;;;;;;0.52;0.43;;;;;;;;;;5146744;27;20196;-66
2022/05/19 14:47:28;;;;;;;0.00;0.00;;;;;;;;;;5117701;27;20238;-66
2022/05/19 14:49:57;;;;;;;0.00;0.00;;;;;;;;;;5146216;27;20204;-66
2022/05/19 14:52:30;;;;;;;0.00;0.00;;;;;;;;;;5117385;27;20242;-65
2022/05/19 14:55:00;;;;;;;0.00;0.00;;;;;;;;;;5146653;27;20243;-67
2022/05/19 14:57:28;;;;;;;0.00;0.00;;;;;;;;;;5117653;27;20253;-66
2022/05/19 14:59:56;;;;;;;0.10;0.10;;;;;;;;;;5146638;27;20492;-67
2022/05/19 15:02:23;;;;;;;0.00;0.00;;;;;;;;;;5117406;27;20234;-68
2022/05/19 15:04:49;;;;;;;0.10;0.10;;;;;;;;;;5146122;27;20504;-65
2022/05/19 15:07:17;;;;;;;0.00;0.00;;;;;;;;;;5117299;27;20249;-66
2022/05/19 15:09:44;;;;;;;0.00;0.00;;;;;;;;;;5145857;27;20209;-67
2022/05/19 15:12:11;;;;;;;0.00;0.00;;;;;;;;;;5117035;27;20230;-66
2022/05/19 15:14:38;;;;;;;0.00;0.00;;;;;;;;;;5145892;27;20201;-66
2022/05/19 15:17:05;;;;;;;0.00;0.00;;;;;;;;;;5117065;27;20260;-66